Time;durP1;ratioP1;P1;durP2;ratioP2;P2;SDS_P1;SDS_P2;PMS_P1;PMS_P2;Temp;Humidity;BMP_temperature;BMP_pressure;BME280_temperature;BME280_humidity;BME280_pressure;Samples;Min_cycle;Max_cycle;Signal;HPM_P1;HPM_P2
2021/07/09 00:01:33;;;;;;;8.68;7.62;;;;;;;30.87;50.39;101561.78;144992;626;6002;-83
2021/07/09 00:04:01;;;;;;;8.32;7.62;;;;;;;30.84;50.46;101553.00;144992;578;6002;-82
2021/07/09 00:06:27;;;;;;;8.55;7.53;;;;;;;30.79;50.36;101555.87;144992;570;6002;-83
2021/07/09 00:08:54;;;;;;;10.40;7.45;;;;;;;30.80;49.78;101557.62;144992;564;6002;-83
2021/07/09 00:11:22;;;;;;;8.55;7.70;;;;;;;30.77;50.25;101555.09;144992;592;6002;-83
2021/07/09 00:13:49;;;;;;;12.05;7.78;;;;;;;30.73;49.95;101553.47;144992;581;6002;-83
2021/07/09 00:16:17;;;;;;;8.55;7.85;;;;;;;30.72;50.49;101547.22;144992;622;6002;-82
2021/07/09 00:18:48;;;;;;;9.48;7.68;;;;;;;30.72;50.55;101541.87;144992;620;6002;-82
2021/07/09 00:21:16;;;;;;;7.93;7.22;;;;;;;30.69;50.36;101547.34;144992;607;6002;-83
2021/07/09 00:23:44;;;;;;;7.65;6.82;;;;;;;30.69;50.43;101544.69;144992;566;6002;-84
2021/07/09 00:26:13;;;;;;;8.07;7.28;;;;;;;30.70;50.35;101548.22;144992;581;6002;-83
2021/07/09 00:28:40;;;;;;;8.27;6.80;;;;;;;30.66;50.57;101550.16;144992;594;6002;-83
2021/07/09 00:31:08;;;;;;;7.85;7.15;;;;;;;30.67;50.57;101559.06;144992;585;6002;-83
2021/07/09 00:33:35;;;;;;;8.15;7.37;;;;;;;30.66;50.21;101542.13;144992;606;6002;-83
2021/07/09 00:36:02;;;;;;;8.63;7.72;;;;;;;30.70;50.18;101548.22;144992;617;6002;-83
2021/07/09 00:38:32;;;;;;;8.68;7.97;;;;;;;30.67;50.32;101543.88;144992;593;6002;-83
2021/07/09 00:41:01;;;;;;;10.88;7.97;;;;;;;30.70;50.20;101543.75;144992;593;6002;-84
2021/07/09 00:43:27;;;;;;;8.18;7.47;;;;;;;30.73;50.34;101546.31;144992;589;6002;-83
2021/07/09 00:45:55;;;;;;;8.20;7.40;;;;;;;30.73;49.99;101542.75;144992;592;6002;-81
2021/07/09 00:48:21;;;;;;;9.27;7.60;;;;;;;30.65;49.90;101548.41;144992;623;6002;-81
2021/07/09 00:50:48;;;;;;;9.05;7.93;;;;;;;30.61;49.73;101549.50;144991;615;6002;-82
2021/07/09 00:53:14;;;;;;;8.30;7.25;;;;;;;30.60;50.23;101544.19;144992;597;6002;-83
2021/07/09 00:55:41;;;;;;;10.30;7.22;;;;;;;30.57;49.53;101545.19;144992;653;6002;-83
2021/07/09 00:58:08;;;;;;;11.10;7.50;;;;;;;30.57;50.09;101553.22;144992;569;6002;-84
2021/07/09 01:00:34;;;;;;;9.40;8.45;;;;;;;30.55;49.83;101547.06;144992;573;6002;-82
2021/07/09 01:03:01;;;;;;;8.32;7.55;;;;;;;30.49;49.76;101545.50;144992;626;6002;-83
2021/07/09 01:05:27;;;;;;;8.90;7.72;;;;;;;30.45;50.01;101549.25;144992;660;6002;-82
2021/07/09 01:07:54;;;;;;;8.38;7.55;;;;;;;30.43;50.24;101534.16;144992;676;6002;-82
2021/07/09 01:10:20;;;;;;;8.25;7.55;;;;;;;30.40;49.60;101545.91;144992;587;6002;-81
2021/07/09 01:12:48;;;;;;;9.45;7.68;;;;;;;30.35;50.05;101538.00;144992;564;6010;-82
2021/07/09 01:15:18;;;;;;;8.88;7.90;;;;;;;30.33;49.49;101534.50;144992;594;6002;-83
2021/07/09 01:17:58;;;;;;;8.80;7.90;;;;;;;30.31;49.76;101525.66;144992;583;6002;-84
2021/07/09 01:20:30;;;;;;;11.70;8.27;;;;;;;30.30;50.21;101520.38;144992;589;6002;-82
2021/07/09 01:23:02;;;;;;;8.68;7.97;;;;;;;30.34;49.61;101528.22;144992;579;6012;-83
2021/07/09 01:25:29;;;;;;;9.32;8.55;;;;;;;30.34;49.97;101533.56;144992;614;6002;-84
2021/07/09 01:28:03;;;;;;;9.38;8.43;;;;;;;30.34;49.45;101527.34;144992;650;6002;-82
2021/07/09 01:30:31;;;;;;;14.75;9.70;;;;;;;30.24;50.05;101534.00;144992;581;6002;-83
2021/07/09 01:32:58;;;;;;;13.32;9.65;;;;;;;30.12;49.59;101540.72;144992;573;6002;-83
2021/07/09 01:35:27;;;;;;;12.27;9.73;;;;;;;29.98;49.33;101543.94;144992;645;6002;-82
2021/07/09 01:38:13;;;;;;;11.57;10.32;;;;;;;29.87;50.36;101543.47;144992;694;6002;-82
2021/07/09 01:40:40;;;;;;;14.90;10.35;;;;;;;29.86;50.46;101534.59;144992;575;6004;-82
2021/07/09 01:43:08;;;;;;;13.52;10.38;;;;;;;29.79;50.40;101538.41;144992;610;6004;-83
2021/07/09 01:45:38;;;;;;;11.68;10.45;;;;;;;29.77;50.49;101530.41;144992;566;6004;-83
2021/07/09 01:48:05;;;;;;;11.35;9.98;;;;;;;29.77;49.87;101526.88;144992;577;6004;-83
2021/07/09 01:50:33;;;;;;;11.48;10.13;;;;;;;29.77;50.08;101527.72;144992;582;6004;-82
2021/07/09 01:53:00;;;;;;;12.77;10.02;;;;;;;29.80;49.84;101537.50;144992;581;6004;-82
2021/07/09 01:55:27;;;;;;;12.25;10.00;;;;;;;29.82;49.66;101535.63;144992;573;6004;-84
2021/07/09 01:57:53;;;;;;;13.05;10.13;;;;;;;29.83;49.66;101534.69;144992;575;6004;-84
2021/07/09 02:00:23;;;;;;;14.95;10.18;;;;;;;29.85;49.44;101538.19;144993;627;6000;-82
2021/07/09 02:02:50;;;;;;;11.35;9.98;;;;;;;29.89;49.95;101533.56;144993;571;6002;-84
2021/07/09 02:05:19;;;;;;;11.50;10.30;;;;;;;29.92;49.40;101531.66;144993;614;6002;-83
2021/07/09 02:07:49;;;;;;;10.65;9.55;;;;;;;29.95;49.45;101533.34;144993;600;6002;-83
2021/07/09 02:10:18;;;;;;;12.45;9.27;;;;;;;29.94;49.39;101532.47;144993;603;6002;-83
2021/07/09 02:12:45;;;;;;;10.13;9.15;;;;;;;29.91;49.33;101537.06;144993;565;6002;-83
2021/07/09 02:15:16;;;;;;;13.65;10.40;;;;;;;29.83;49.00;101540.91;144992;569;6002;-83
2021/07/09 02:17:43;;;;;;;13.82;10.00;;;;;;;29.60;49.71;101531.03;144993;608;6002;-82
2021/07/09 02:20:13;;;;;;;11.27;9.18;;;;;;;29.49;50.08;101535.91;144993;607;6002;-82
2021/07/09 02:22:40;;;;;;;11.40;9.18;;;;;;;29.49;50.04;101547.50;144993;588;6002;-82
2021/07/09 02:25:07;;;;;;;11.75;9.10;;;;;;;29.53;50.32;101542.03;144993;578;6002;-82
2021/07/09 02:27:36;;;;;;;11.05;9.10;;;;;;;29.58;50.06;101554.31;144993;570;6002;-83
2021/07/09 02:30:07;;;;;;;9.65;8.85;;;;;;;29.61;50.09;101551.50;144993;570;6002;-82
2021/07/09 02:32:34;;;;;;;10.85;9.75;;;;;;;29.61;49.90;101551.50;144992;563;6002;-84
2021/07/09 02:35:01;;;;;;;10.35;9.35;;;;;;;29.63;49.80;101541.63;144992;582;6002;-82
2021/07/09 02:37:28;;;;;;;10.80;9.32;;;;;;;29.66;49.79;101537.97;144992;576;6002;-83
2021/07/09 02:39:54;;;;;;;12.90;10.05;;;;;;;29.69;50.07;101540.53;144992;609;6002;-83
2021/07/09 02:42:21;;;;;;;11.23;9.52;;;;;;;29.72;49.75;101552.94;144992;608;6002;-84
2021/07/09 02:44:47;;;;;;;10.35;9.25;;;;;;;29.74;49.67;101548.37;144992;618;6002;-82
2021/07/09 02:47:14;;;;;;;10.75;9.70;;;;;;;29.73;49.66;101560.00;144993;632;6002;-84
2021/07/09 02:49:41;;;;;;;10.38;9.27;;;;;;;29.73;49.57;101562.69;144993;572;6002;-82
2021/07/09 02:52:08;;;;;;;11.73;9.40;;;;;;;29.75;49.96;101566.16;144993;630;6002;-83
2021/07/09 02:54:34;;;;;;;10.32;9.23;;;;;;;29.79;49.68;101559.81;144993;695;6002;-82
2021/07/09 02:57:01;;;;;;;10.57;9.57;;;;;;;29.78;49.98;101550.91;144993;614;6002;-86
2021/07/09 02:59:49;;;;;;;10.48;9.50;;;;;;;29.82;49.57;101549.00;144993;593;6002;-82
2021/07/09 03:02:20;;;;;;;12.95;9.85;;;;;;;29.87;49.48;101557.72;144993;583;6002;-82
2021/07/09 03:04:47;;;;;;;10.35;8.98;;;;;;;29.91;49.41;101559.37;144992;563;6002;-83
2021/07/09 03:07:13;;;;;;;12.07;9.77;;;;;;;29.92;49.76;101554.88;144993;621;6002;-83
2021/07/09 03:09:40;;;;;;;17.35;10.15;;;;;;;29.92;49.63;101561.09;144992;571;6002;-83
2021/07/09 03:12:07;;;;;;;12.95;10.18;;;;;;;29.89;49.41;101554.97;144993;620;6002;-82
2021/07/09 03:14:35;;;;;;;11.20;10.07;;;;;;;29.89;49.48;101555.87;144993;589;6002;-83
2021/07/09 03:17:01;;;;;;;12.23;10.02;;;;;;;29.91;49.73;101566.50;144993;596;6002;-83
2021/07/09 03:19:28;;;;;;;10.80;9.80;;;;;;;29.92;49.39;101563.75;144993;620;6002;-84
2021/07/09 03:21:57;;;;;;;13.07;9.98;;;;;;;29.93;49.51;101568.19;144993;646;6002;-83
2021/07/09 03:24:23;;;;;;;12.05;9.90;;;;;;;29.96;49.54;101572.56;144993;569;6002;-83
2021/07/09 03:26:50;;;;;;;12.10;9.75;;;;;;;30.00;49.50;101579.53;144993;569;6002;-83
2021/07/09 03:29:16;;;;;;;13.13;10.82;;;;;;;30.03;49.77;101576.75;144993;591;6002;-83
2021/07/09 03:31:43;;;;;;;11.23;10.13;;;;;;;30.02;49.36;101575.87;144993;631;6002;-82
2021/07/09 03:34:10;;;;;;;11.00;9.88;;;;;;;29.96;49.33;101567.22;144993;618;6002;-83
2021/07/09 03:36:43;;;;;;;15.63;10.00;;;;;;;29.84;49.52;101571.22;144993;583;6002;-81
2021/07/09 03:39:11;;;;;;;13.95;10.15;;;;;;;29.84;50.16;101568.53;144993;612;6002;-83
2021/07/09 03:41:41;;;;;;;14.23;10.25;;;;;;;29.87;49.64;101570.25;144994;595;5002;-83
2021/07/09 03:44:08;;;;;;;12.23;10.32;;;;;;;29.92;49.73;101566.44;144994;565;5002;-85
2021/07/09 03:46:36;;;;;;;11.73;10.23;;;;;;;29.98;50.19;101562.66;144994;607;5002;-81
2021/07/09 03:49:06;;;;;;;11.25;10.05;;;;;;;30.06;49.87;101570.41;144994;625;5002;-84
2021/07/09 03:51:34;;;;;;;10.90;9.80;;;;;;;30.09;50.14;101575.66;144994;676;5002;-83
2021/07/09 03:54:01;;;;;;;12.85;9.32;;;;;;;30.14;49.73;101579.88;144994;571;5002;-82
2021/07/09 03:56:29;;;;;;;10.15;9.15;;;;;;;30.18;49.76;101583.31;144994;673;5002;-83
2021/07/09 03:58:57;;;;;;;15.27;9.65;;;;;;;30.18;50.25;101580.66;144994;577;5002;-84
2021/07/09 04:01:23;;;;;;;12.35;9.65;;;;;;;30.20;50.35;101582.31;144994;586;5002;-83
2021/07/09 04:03:50;;;;;;;18.02;10.18;;;;;;;30.08;50.47;101576.56;144994;605;5002;-83
2021/07/09 04:06:17;;;;;;;11.12;9.70;;;;;;;30.06;50.52;101581.12;144994;595;5002;-83
2021/07/09 04:08:48;;;;;;;11.57;9.55;;;;;;;30.10;50.25;101582.72;144994;597;5002;-83
2021/07/09 04:11:16;;;;;;;10.70;9.60;;;;;;;30.11;50.19;101582.66;144994;575;5002;-82
2021/07/09 04:13:44;;;;;;;12.50;9.50;;;;;;;30.14;50.40;101574.50;144994;571;5002;-83
2021/07/09 04:16:14;;;;;;;11.23;9.93;;;;;;;30.18;50.75;101575.28;144994;618;5002;-82
2021/07/09 04:18:43;;;;;;;10.77;9.73;;;;;;;30.23;50.65;101575.97;144994;575;5002;-83
2021/07/09 04:21:10;;;;;;;12.32;9.20;;;;;;;30.26;50.37;101589.25;144994;625;5002;-84
2021/07/09 04:23:36;;;;;;;14.05;10.30;;;;;;;30.22;50.25;101590.28;144994;649;5002;-83
2021/07/09 04:26:03;;;;;;;12.75;10.35;;;;;;;30.13;49.72;101591.53;144994;615;5002;-82
2021/07/09 04:28:31;;;;;;;11.52;10.15;;;;;;;30.14;50.36;101584.38;144994;569;5002;-84
2021/07/09 04:30:58;;;;;;;13.18;9.75;;;;;;;30.20;50.30;101592.16;144993;591;5002;-83
2021/07/09 04:33:27;;;;;;;10.93;9.65;;;;;;;30.27;50.05;101593.66;144994;572;5002;-85
2021/07/09 04:36:06;;;;;;;13.55;9.52;;;;;;;30.38;50.16;101603.97;144994;622;5002;-83
2021/07/09 04:38:42;;;;;;;14.48;10.38;;;;;;;30.44;50.33;101608.25;144994;592;5018;-84
2021/07/09 04:41:10;;;;;;;13.30;9.60;;;;;;;30.53;50.35;101611.41;144994;564;5002;-83
2021/07/09 04:43:43;;;;;;;13.07;9.98;;;;;;;30.61;49.73;101608.44;144994;569;5002;-90
2021/07/09 04:46:18;;;;;;;14.40;9.70;;;;;;;30.69;49.78;101600.94;144994;577;5002;-84
2021/07/09 04:48:52;;;;;;;12.95;9.73;;;;;;;30.67;49.53;101591.22;144994;635;5002;-83
2021/07/09 04:51:19;;;;;;;11.95;9.68;;;;;;;30.74;49.23;101596.28;144993;594;5002;-82
2021/07/09 04:53:48;;;;;;;11.48;10.20;;;;;;;30.83;49.09;101583.41;144994;605;5002;-85
2021/07/09 04:56:16;;;;;;;11.12;9.93;;;;;;;30.80;48.62;101584.44;144994;587;5002;-85
2021/07/09 04:58:44;;;;;;;15.90;10.93;;;;;;;30.83;48.91;101580.75;144994;619;5002;-83
2021/07/09 05:01:15;;;;;;;12.60;10.98;;;;;;;30.81;48.85;101575.44;144994;609;5002;-84
2021/07/09 05:03:49;;;;;;;12.60;10.75;;;;;;;30.83;48.94;101572.69;144994;564;5002;-83
2021/07/09 05:06:23;;;;;;;15.25;9.85;;;;;;;30.80;48.90;101576.41;144994;592;5002;-83
2021/07/09 05:08:59;;;;;;;10.45;9.40;;;;;;;30.82;49.46;101573.66;144994;583;5002;-90
2021/07/09 05:11:32;;;;;;;10.65;9.65;;;;;;;30.77;49.08;101576.53;144994;572;5002;-85
2021/07/09 05:14:02;;;;;;;10.60;9.00;;;;;;;30.78;49.53;101588.09;144994;573;5002;-89
2021/07/09 05:16:31;;;;;;;10.65;9.57;;;;;;;30.82;49.30;101584.38;144994;589;5002;-83
2021/07/09 05:18:59;;;;;;;9.65;7.12;;;;;;;30.80;51.18;101596.94;144994;570;5002;-84
2021/07/09 05:21:31;;;;;;;8.00;6.72;;;;;;;30.78;49.93;101594.31;144994;571;5002;-83
2021/07/09 05:24:04;;;;;;;6.80;5.62;;;;;;;30.52;51.47;101598.09;144994;572;5002;-84
2021/07/09 05:26:35;;;;;;;10.87;5.87;;;;;;;30.27;51.76;101593.66;144994;574;5002;-86
2021/07/09 05:29:04;;;;;;;8.48;5.78;;;;;;;30.28;53.54;101594.53;144994;623;5004;-82
2021/07/09 05:31:37;;;;;;;8.60;5.45;;;;;;;30.18;52.61;101586.88;144994;570;5002;-83
2021/07/09 05:34:05;;;;;;;7.85;5.30;;;;;;;29.96;53.34;101577.91;144994;563;5002;-82
2021/07/09 05:36:39;;;;;;;7.95;5.65;;;;;;;30.12;52.73;101579.06;144994;603;5002;-86
2021/07/09 05:39:15;;;;;;;10.02;5.40;;;;;;;30.19;52.74;101577.03;144994;566;5002;-83
2021/07/09 05:41:46;;;;;;;6.32;5.10;;;;;;;30.17;52.94;101582.44;144994;570;5002;-84
2021/07/09 05:44:18;;;;;;;6.05;5.12;;;;;;;30.13;52.95;101582.59;144994;624;5002;-88
2021/07/09 05:47:03;;;;;;;6.53;5.75;;;;;;;30.15;52.64;101592.34;144994;596;5002;-81
2021/07/09 05:49:32;;;;;;;7.22;5.97;;;;;;;30.27;52.38;101590.09;144994;580;5002;-85
2021/07/09 05:52:00;;;;;;;7.07;6.20;;;;;;;30.29;52.41;101588.22;144994;607;5002;-84
2021/07/09 05:54:36;;;;;;;7.90;6.37;;;;;;;30.20;53.22;101592.16;144994;591;5002;-83
2021/07/09 05:57:23;;;;;;;11.23;6.57;;;;;;;30.37;52.23;101589.69;144994;582;5002;-81
2021/07/09 05:59:53;;;;;;;8.07;6.62;;;;;;;30.53;51.88;101583.78;144994;570;5002;-83
2021/07/09 06:02:34;;;;;;;;;;;;;;;;;;;;;
2021/07/09 06:05:10;;;;;;;9.43;6.72;;;;;;;30.70;51.94;101596.47;144994;622;5004;-84
2021/07/09 06:07:41;;;;;;;8.93;7.05;;;;;;;30.80;52.62;101599.63;144994;602;5004;-84
2021/07/09 06:10:09;;;;;;;7.60;6.78;;;;;;;30.82;52.43;101587.91;144994;607;5004;-82
2021/07/09 06:12:37;;;;;;;8.38;6.82;;;;;;;30.95;51.52;101596.31;144994;595;5004;-82
2021/07/09 06:15:05;;;;;;;10.70;6.80;;;;;;;30.98;51.18;101593.53;144994;667;5004;-82
2021/07/09 06:17:32;;;;;;;7.65;6.53;;;;;;;30.72;52.27;101594.59;144994;557;5004;-83
2021/07/09 06:19:59;;;;;;;9.32;6.47;;;;;;;30.66;52.36;101592.19;144994;567;5004;-83
2021/07/09 06:22:25;;;;;;;11.30;6.32;;;;;;;30.67;51.79;101594.78;144993;575;5004;-78
2021/07/09 06:24:51;;;;;;;9.98;6.60;;;;;;;30.77;51.54;101592.59;144994;565;5002;-74
2021/07/09 06:27:19;;;;;;;9.13;5.68;;;;;;;30.55;52.38;101597.97;144994;569;5002;-74
2021/07/09 06:29:45;;;;;;;8.77;5.62;;;;;;;30.46;51.73;101595.66;144994;590;5002;-73
2021/07/09 06:32:11;;;;;;;12.02;5.50;;;;;;;30.37;51.68;101591.50;144994;583;5002;-74
2021/07/09 06:34:38;;;;;;;9.93;5.65;;;;;;;30.32;51.74;101591.69;144994;579;5002;-73
2021/07/09 06:37:04;;;;;;;8.10;6.10;;;;;;;30.25;52.37;101595.53;144994;613;5002;-75
2021/07/09 06:39:31;;;;;;;9.18;5.80;;;;;;;30.38;51.82;101591.47;144994;571;5002;-74
2021/07/09 06:41:57;;;;;;;6.12;5.53;;;;;;;30.48;51.15;101597.34;144994;570;5002;-78
2021/07/09 06:44:24;;;;;;;9.88;5.95;;;;;;;30.59;51.70;101593.34;144994;622;5002;-74
2021/07/09 06:46:50;;;;;;;7.65;5.97;;;;;;;30.59;51.43;101582.63;144994;579;5002;-74
2021/07/09 06:49:16;;;;;;;7.55;5.68;;;;;;;30.50;51.22;101586.56;144994;575;5002;-74
2021/07/09 06:51:43;;;;;;;8.38;6.00;;;;;;;30.55;51.66;101584.56;144994;571;5002;-73
2021/07/09 06:54:09;;;;;;;8.65;6.07;;;;;;;30.42;51.49;101588.66;144994;624;5002;-75
2021/07/09 06:56:36;;;;;;;8.85;6.00;;;;;;;30.61;50.84;101592.34;144994;588;5002;-74
2021/07/09 06:59:02;;;;;;;9.68;6.20;;;;;;;30.63;51.47;101593.16;144994;609;5002;-73
2021/07/09 07:01:29;;;;;;;6.25;5.45;;;;;;;30.70;50.85;101586.63;144994;569;5002;-73
2021/07/09 07:03:55;;;;;;;8.95;6.20;;;;;;;30.73;50.91;101586.50;144994;564;5002;-73
2021/07/09 07:06:22;;;;;;;8.40;4.90;;;;;;;30.61;51.01;101581.66;144994;612;5002;-73
2021/07/09 07:08:48;;;;;;;7.75;5.07;;;;;;;30.49;51.22;101579.47;144994;668;5002;-73
2021/07/09 07:11:15;;;;;;;6.90;5.07;;;;;;;30.44;51.94;101589.50;144994;580;5002;-74
2021/07/09 07:13:41;;;;;;;7.78;5.78;;;;;;;30.31;51.95;101581.03;144994;589;5002;-74
2021/07/09 07:16:08;;;;;;;8.43;5.90;;;;;;;30.48;51.90;101585.72;144994;565;5002;-73
2021/07/09 07:18:35;;;;;;;7.32;5.12;;;;;;;30.48;51.22;101580.38;144994;647;5002;-72
2021/07/09 07:21:01;;;;;;;7.78;5.18;;;;;;;30.56;51.50;101575.59;144994;591;5002;-73
2021/07/09 07:23:28;;;;;;;6.62;5.20;;;;;;;30.44;51.46;101582.31;144994;570;5002;-72
2021/07/09 07:25:55;;;;;;;6.25;4.90;;;;;;;30.57;51.29;101571.97;144994;581;5002;-74
2021/07/09 07:28:21;;;;;;;8.50;5.32;;;;;;;30.55;50.84;101568.50;144994;572;5002;-72
2021/07/09 07:30:49;;;;;;;7.10;5.15;;;;;;;30.51;50.93;101574.91;144994;613;5002;-73
2021/07/09 07:33:17;;;;;;;7.32;5.20;;;;;;;30.56;50.34;101572.94;144994;573;5002;-72
2021/07/09 07:35:44;;;;;;;5.53;4.82;;;;;;;30.45;50.84;101572.47;144994;617;5002;-74
2021/07/09 07:38:11;;;;;;;7.05;4.43;;;;;;;30.35;51.26;101579.97;144994;600;5002;-71
2021/07/09 07:40:37;;;;;;;6.12;4.37;;;;;;;30.29;51.71;101575.75;144994;584;5002;-72
2021/07/09 07:43:05;;;;;;;5.20;4.45;;;;;;;30.25;51.02;101566.06;144994;605;5002;-71
2021/07/09 07:45:32;;;;;;;6.32;4.50;;;;;;;30.38;50.88;101580.78;144994;587;5002;-71
2021/07/09 07:48:00;;;;;;;4.47;4.07;;;;;;;30.22;50.34;101584.94;144994;605;5002;-71
2021/07/09 07:50:27;;;;;;;5.87;4.70;;;;;;;30.12;51.07;101583.56;144994;564;5002;-73
2021/07/09 07:52:54;;;;;;;4.80;3.97;;;;;;;30.24;51.06;101583.06;144993;599;5002;-75
2021/07/09 07:55:22;;;;;;;5.82;4.20;;;;;;;30.08;51.75;101590.81;144994;569;5002;-72
2021/07/09 07:57:48;;;;;;;6.32;4.25;;;;;;;30.00;50.94;101582.22;144994;596;5002;-75
2021/07/09 08:00:15;;;;;;;5.70;4.37;;;;;;;29.93;51.14;101596.78;144994;600;5002;-75
2021/07/09 08:02:42;;;;;;;4.95;4.43;;;;;;;30.06;51.04;101579.31;144994;595;5002;-72
2021/07/09 08:05:10;;;;;;;6.20;4.43;;;;;;;30.14;51.11;101587.91;144994;592;5002;-72
2021/07/09 08:07:37;;;;;;;8.85;4.78;;;;;;;30.14;51.17;101592.41;144994;600;5002;-73
2021/07/09 08:10:04;;;;;;;5.40;3.85;;;;;;;30.20;51.06;101585.00;144994;597;5002;-72
2021/07/09 08:12:31;;;;;;;5.90;4.45;;;;;;;30.19;50.92;101588.63;144994;586;4566;-70
2021/07/09 08:14:57;;;;;;;5.57;4.18;;;;;;;30.11;50.81;101576.44;144994;571;4567;-74
2021/07/09 08:17:24;;;;;;;7.72;4.40;;;;;;;30.09;50.50;101589.03;144994;574;4584;-72
2021/07/09 08:19:51;;;;;;;4.50;4.00;;;;;;;29.99;51.13;101588.50;144992;564;6002;-72
2021/07/09 08:22:17;;;;;;;6.60;4.32;;;;;;;29.91;50.91;101580.78;144992;598;6002;-72
2021/07/09 08:24:44;;;;;;;5.53;4.18;;;;;;;29.97;51.00;101585.91;144992;589;6002;-72
2021/07/09 08:27:10;;;;;;;7.22;4.50;;;;;;;29.90;50.94;101584.38;144992;564;6002;-72
2021/07/09 08:29:37;;;;;;;6.75;4.53;;;;;;;29.83;50.60;101569.50;144992;581;6002;-72
2021/07/09 08:32:04;;;;;;;9.98;4.30;;;;;;;29.81;51.01;101577.56;144992;589;6002;-72
2021/07/09 08:34:30;;;;;;;7.57;4.32;;;;;;;30.08;50.77;101576.56;144992;564;6002;-76
2021/07/09 08:36:58;;;;;;;4.78;4.00;;;;;;;30.13;49.16;101579.94;144992;665;6002;-72
2021/07/09 08:39:24;;;;;;;4.87;3.50;;;;;;;30.21;49.94;101577.84;144992;613;6002;-72
2021/07/09 08:41:55;;;;;;;5.00;3.80;;;;;;;30.08;49.56;101574.75;144992;645;6002;-71
2021/07/09 08:44:21;;;;;;;4.00;3.60;;;;;;;30.16;48.79;101579.81;144992;564;6002;-73
2021/07/09 08:46:49;;;;;;;6.93;4.03;;;;;;;30.17;49.15;101571.72;144992;576;6002;-72
2021/07/09 08:49:17;;;;;;;4.47;3.97;;;;;;;30.03;48.52;101580.31;144992;567;6002;-71
2021/07/09 08:51:44;;;;;;;6.62;4.32;;;;;;;30.09;48.90;101578.31;144992;615;6002;-71
2021/07/09 08:54:16;;;;;;;8.43;4.07;;;;;;;30.10;49.29;101580.03;144992;569;6002;-72
2021/07/09 08:56:43;;;;;;;4.62;3.75;;;;;;;30.15;49.31;101568.25;144992;589;6002;-72
2021/07/09 08:59:10;;;;;;;5.50;4.05;;;;;;;30.24;49.39;101580.38;144992;566;6002;-74
2021/07/09 09:01:58;;;;;;;5.78;4.05;;;;;;;30.23;48.96;101577.78;144992;582;6002;-70
2021/07/09 09:04:30;;;;;;;8.95;5.22;;;;;;;30.28;48.77;101571.31;144992;596;6004;-70
2021/07/09 09:07:16;;;;;;;4.45;3.70;;;;;;;30.28;49.23;101570.44;144992;563;6004;-71
2021/07/09 09:09:43;;;;;;;7.50;3.65;;;;;;;30.37;48.48;101568.28;144992;629;6002;-74
2021/07/09 09:12:13;;;;;;;12.82;4.10;;;;;;;30.27;48.63;101566.88;144992;569;6002;-72
2021/07/09 09:14:51;;;;;;;4.62;3.80;;;;;;;30.42;48.02;101580.62;144992;564;6002;-72
2021/07/09 09:17:35;;;;;;;4.78;3.62;;;;;;;30.41;47.45;101557.47;144992;580;6002;-71
2021/07/09 09:20:27;;;;;;;;;;;;;;;30.41;47.84;101554.78;144997;914;6002;-72
2021/07/09 09:22:55;;;;;;;6.50;3.95;;;;;;;30.56;47.32;101554.19;144997;584;6000;-70
2021/07/09 09:25:27;;;;;;;4.85;3.83;;;;;;;30.36;47.90;101554.94;144992;628;6002;-71
2021/07/09 09:28:07;;;;;;;5.00;3.20;;;;;;;30.53;47.96;101551.63;144992;583;6002;-75
2021/07/09 09:30:35;;;;;;;4.53;3.12;;;;;;;30.51;47.95;101557.03;144992;569;6002;-72
2021/07/09 09:33:04;;;;;;;4.90;3.03;;;;;;;30.52;48.25;101552.53;144992;570;6002;-71
2021/07/09 09:35:37;;;;;;;3.50;2.83;;;;;;;30.57;47.11;101554.09;144992;601;6002;-78
2021/07/09 09:38:06;;;;;;;3.92;2.87;;;;;;;30.61;46.95;101545.91;144992;569;6002;-71
2021/07/09 09:40:34;;;;;;;3.78;2.70;;;;;;;30.66;46.58;101554.66;144992;580;6002;-70
2021/07/09 09:43:07;;;;;;;5.10;2.50;;;;;;;30.59;46.55;101551.34;144992;581;6002;-73
2021/07/09 09:45:34;;;;;;;2.95;2.65;;;;;;;30.61;46.24;101556.63;144992;612;6002;-70
2021/07/09 09:48:09;;;;;;;6.32;2.80;;;;;;;30.54;46.67;101553.34;144992;577;6002;-73
2021/07/09 09:50:49;;;;;;;4.45;2.72;;;;;;;30.41;46.70;101544.06;144992;633;6002;-70
2021/07/09 09:53:17;;;;;;;4.10;2.37;;;;;;;30.41;47.23;101541.41;144992;588;6002;-71
2021/07/09 09:55:43;;;;;;;5.37;2.45;;;;;;;30.34;47.78;101541.59;144992;598;6002;-72
2021/07/09 09:58:19;;;;;;;5.82;2.80;;;;;;;30.32;47.79;101553.31;144992;571;6002;-72
2021/07/09 10:00:48;;;;;;;4.07;2.70;;;;;;;30.42;47.41;101548.47;144992;564;6002;-71
2021/07/09 10:03:15;;;;;;;5.32;2.87;;;;;;;30.48;47.63;101533.06;144992;569;6002;-74
2021/07/09 10:05:43;;;;;;;4.47;2.65;;;;;;;30.52;47.47;101545.37;144992;599;6002;-71
2021/07/09 10:08:12;;;;;;;3.25;2.55;;;;;;;30.58;47.92;101541.56;144992;646;6002;-71
2021/07/09 10:10:40;;;;;;;8.70;2.87;;;;;;;30.67;47.61;101543.00;144992;634;6002;-74
2021/07/09 10:13:13;;;;;;;5.72;3.03;;;;;;;30.62;47.81;101545.84;144992;588;6002;-70
2021/07/09 10:15:41;;;;;;;3.83;3.35;;;;;;;30.64;47.44;101532.41;144992;634;6002;-70
2021/07/09 10:18:13;;;;;;;4.05;2.65;;;;;;;30.90;47.36;101545.56;144992;570;6003;-73
2021/07/09 10:20:44;;;;;;;4.60;2.87;;;;;;;31.02;46.89;101529.94;144992;570;6002;-71
2021/07/09 10:23:13;;;;;;;4.87;2.67;;;;;;;30.88;46.01;101542.09;144992;585;6002;-74
2021/07/09 10:25:40;;;;;;;3.85;2.90;;;;;;;31.02;46.88;101529.94;144991;577;6003;-75
2021/07/09 10:28:08;;;;;;;5.45;3.03;;;;;;;30.96;47.49;101535.53;144992;657;6002;-70
2021/07/09 10:30:40;;;;;;;3.78;3.00;;;;;;;30.67;48.77;101543.88;144992;606;6002;-71
2021/07/09 10:33:31;;;;;;;4.75;2.72;;;;;;;30.80;47.14;101532.63;144992;564;6002;-77
2021/07/09 10:36:00;;;;;;;4.87;2.67;;;;;;;30.74;47.48;101529.28;144992;570;6004;-71
2021/07/09 10:38:41;;;;;;;3.53;2.40;;;;;;;30.72;47.96;101535.66;144992;571;6004;-74
2021/07/09 10:41:19;;;;;;;4.65;2.80;;;;;;;30.70;48.46;101526.78;144992;562;6004;-73
2021/07/09 10:44:13;;;;;;;3.62;2.50;;;;;;;30.91;48.40;101533.06;144991;584;6000;-74
2021/07/09 10:46:39;;;;;;;3.00;2.70;;;;;;;30.99;48.53;101536.31;144992;587;6004;-74
2021/07/09 10:49:06;;;;;;;6.75;2.60;;;;;;;30.89;47.75;101527.78;144992;589;6004;-75
2021/07/09 10:51:51;;;;;;;13.05;3.30;;;;;;;30.88;47.24;101525.16;144992;567;6004;-73
2021/07/09 10:54:26;;;;;;;6.12;2.90;;;;;;;30.62;48.96;101519.06;144992;638;6004;-71
2021/07/09 10:57:20;;;;;;;7.53;3.03;;;;;;;30.75;46.97;101523.00;144992;569;6004;-72
2021/07/09 11:00:20;;;;;;;4.20;2.78;;;;;;;30.82;46.95;101514.69;144992;586;6002;-74
2021/07/09 11:03:00;;;;;;;3.50;2.70;;;;;;;30.79;47.31;101504.97;144992;571;6004;-71
2021/07/09 11:06:14;;;;;;;5.57;2.60;;;;;;;30.86;46.55;101505.56;144992;586;6004;-72
2021/07/09 11:08:57;;;;;;;3.92;2.87;;;;;;;30.96;46.76;101506.03;144992;565;6002;-72
2021/07/09 11:11:55;;;;;;;3.47;2.70;;;;;;;31.03;46.75;101511.09;144992;571;6002;-73
2021/07/09 11:14:35;;;;;;;5.85;3.90;;;;;;;31.06;46.45;101497.56;144992;593;6004;-72
2021/07/09 11:17:16;;;;;;;4.40;3.22;;;;;;;31.21;46.94;101492.44;144992;582;6004;-72
2021/07/09 11:19:43;;;;;;;5.15;3.30;;;;;;;31.22;46.15;101491.53;144992;566;6004;-71
2021/07/09 11:22:11;;;;;;;4.07;3.67;;;;;;;31.31;45.99;101491.13;144992;571;6004;-74
2021/07/09 11:24:49;;;;;;;3.05;2.75;;;;;;;31.41;44.75;101481.69;144992;567;6005;-75
2021/07/09 11:27:16;;;;;;;3.58;2.40;;;;;;;31.45;44.67;101480.63;144992;642;6004;-74
2021/07/09 11:29:45;;;;;;;5.18;3.10;;;;;;;31.15;46.13;101477.53;144992;571;6004;-72
2021/07/09 11:32:19;;;;;;;3.65;2.70;;;;;;;31.41;45.30;101473.66;144992;654;6005;-72
2021/07/09 11:34:55;;;;;;;;;;;;;;;31.18;45.92;101466.66;144997;912;6004;-72
2021/07/09 11:37:23;;;;;;;4.07;3.08;;;;;;;31.22;45.32;101470.06;144997;573;6002;-72
2021/07/09 11:39:53;;;;;;;3.65;2.80;;;;;;;31.20;46.32;101469.28;144992;592;6002;-74
2021/07/09 11:42:23;;;;;;;3.00;2.70;;;;;;;31.27;46.26;101463.53;144992;632;6002;-72
2021/07/09 11:44:58;;;;;;;4.22;2.78;;;;;;;31.56;44.98;101466.75;144992;609;6002;-73